sensor_id;sensor_type;location;lat;lon;timestamp;P1;durP1;ratioP1;P2;durP2;ratioP2
24901;SDS011;31328;51.402;0.016;2023-02-28T00:01:14;3.70;;;2.40;;
24901;SDS011;31328;51.402;0.016;2023-02-28T00:03:41;4.37;;;2.40;;
24901;SDS011;31328;51.402;0.016;2023-02-28T00:06:08;3.57;;;2.47;;
24901;SDS011;31328;51.402;0.016;2023-02-28T00:08:35;5.57;;;2.60;;
24901;SDS011;31328;51.402;0.016;2023-02-28T00:11:03;6.03;;;2.67;;
24901;SDS011;31328;51.402;0.016;2023-02-28T00:13:30;6.90;;;2.17;;
24901;SDS011;31328;51.402;0.016;2023-02-28T00:16:02;7.63;;;3.30;;
24901;SDS011;31328;51.402;0.016;2023-02-28T00:18:35;5.97;;;2.30;;
24901;SDS011;31328;51.402;0.016;2023-02-28T00:21:01;7.57;;;3.03;;
24901;SDS011;31328;51.402;0.016;2023-02-28T00:23:28;5.13;;;2.20;;
24901;SDS011;31328;51.402;0.016;2023-02-28T00:25:54;4.70;;;2.57;;
24901;SDS011;31328;51.402;0.016;2023-02-28T00:28:21;6.50;;;2.80;;
24901;SDS011;31328;51.402;0.016;2023-02-28T00:30:48;6.57;;;2.60;;
24901;SDS011;31328;51.402;0.016;2023-02-28T00:33:14;5.80;;;2.20;;
24901;SDS011;31328;51.402;0.016;2023-02-28T00:35:41;7.40;;;2.30;;
24901;SDS011;31328;51.402;0.016;2023-02-28T00:38:08;6.50;;;2.77;;
24901;SDS011;31328;51.402;0.016;2023-02-28T00:40:35;5.77;;;2.40;;
24901;SDS011;31328;51.402;0.016;2023-02-28T00:43:01;5.10;;;2.57;;
24901;SDS011;31328;51.402;0.016;2023-02-28T00:45:28;6.63;;;2.90;;
24901;SDS011;31328;51.402;0.016;2023-02-28T00:47:56;4.20;;;2.07;;
24901;SDS011;31328;51.402;0.016;2023-02-28T00:50:23;10.33;;;3.83;;
24901;SDS011;31328;51.402;0.016;2023-02-28T00:52:49;5.30;;;2.17;;
24901;SDS011;31328;51.402;0.016;2023-02-28T00:55:16;5.87;;;2.27;;
24901;SDS011;31328;51.402;0.016;2023-02-28T00:57:42;6.37;;;2.10;;
24901;SDS011;31328;51.402;0.016;2023-02-28T01:00:09;4.07;;;2.07;;
24901;SDS011;31328;51.402;0.016;2023-02-28T01:02:36;6.93;;;2.23;;
24901;SDS011;31328;51.402;0.016;2023-02-28T01:05:03;5.20;;;2.40;;
24901;SDS011;31328;51.402;0.016;2023-02-28T01:07:29;3.70;;;2.00;;
24901;SDS011;31328;51.402;0.016;2023-02-28T01:09:56;6.90;;;2.60;;
24901;SDS011;31328;51.402;0.016;2023-02-28T01:12:24;7.87;;;2.80;;
24901;SDS011;31328;51.402;0.016;2023-02-28T01:14:50;6.23;;;2.37;;
24901;SDS011;31328;51.402;0.016;2023-02-28T01:17:17;5.17;;;2.73;;
24901;SDS011;31328;51.402;0.016;2023-02-28T01:19:43;10.93;;;2.70;;
24901;SDS011;31328;51.402;0.016;2023-02-28T01:22:09;7.33;;;2.67;;
24901;SDS011;31328;51.402;0.016;2023-02-28T01:24:36;4.83;;;2.23;;
24901;SDS011;31328;51.402;0.016;2023-02-28T01:27:03;7.03;;;2.50;;
24901;SDS011;31328;51.402;0.016;2023-02-28T01:29:29;6.90;;;2.80;;
24901;SDS011;31328;51.402;0.016;2023-02-28T01:31:56;6.33;;;2.17;;
24901;SDS011;31328;51.402;0.016;2023-02-28T01:34:25;7.03;;;2.30;;
24901;SDS011;31328;51.402;0.016;2023-02-28T01:36:51;6.37;;;1.90;;
24901;SDS011;31328;51.402;0.016;2023-02-28T01:39:18;7.90;;;2.40;;
24901;SDS011;31328;51.402;0.016;2023-02-28T01:41:45;6.17;;;2.10;;
24901;SDS011;31328;51.402;0.016;2023-02-28T01:47:15;7.23;;;2.27;;
24901;SDS011;31328;51.402;0.016;2023-02-28T01:49:41;5.80;;;2.20;;
24901;SDS011;31328;51.402;0.016;2023-02-28T01:52:08;6.83;;;2.43;;
24901;SDS011;31328;51.402;0.016;2023-02-28T01:54:45;5.50;;;2.80;;
24901;SDS011;31328;51.402;0.016;2023-02-28T01:57:18;5.20;;;2.47;;
24901;SDS011;31328;51.402;0.016;2023-02-28T01:59:50;7.90;;;2.00;;
24901;SDS011;31328;51.402;0.016;2023-02-28T02:02:24;6.00;;;2.47;;
24901;SDS011;31328;51.402;0.016;2023-02-28T02:07:29;7.27;;;2.83;;
24901;SDS011;31328;51.402;0.016;2023-02-28T02:10:04;8.27;;;2.33;;
24901;SDS011;31328;51.402;0.016;2023-02-28T02:21:15;9.93;;;2.53;;
24901;SDS011;31328;51.402;0.016;2023-02-28T02:26:52;5.17;;;2.20;;
24901;SDS011;31328;51.402;0.016;2023-02-28T02:29:51;4.57;;;2.30;;
24901;SDS011;31328;51.402;0.016;2023-02-28T02:38:28;6.50;;;2.87;;
24901;SDS011;31328;51.402;0.016;2023-02-28T02:44:02;5.03;;;2.10;;
24901;SDS011;31328;51.402;0.016;2023-02-28T02:46:50;5.37;;;2.30;;
24901;SDS011;31328;51.402;0.016;2023-02-28T02:49:26;10.40;;;3.03;;
24901;SDS011;31328;51.402;0.016;2023-02-28T02:51:57;6.30;;;2.43;;
24901;SDS011;31328;51.402;0.016;2023-02-28T02:54:40;7.45;;;2.63;;
24901;SDS011;31328;51.402;0.016;2023-02-28T02:57:33;6.33;;;2.10;;
24901;SDS011;31328;51.402;0.016;2023-02-28T03:00:03;5.10;;;2.00;;
24901;SDS011;31328;51.402;0.016;2023-02-28T03:02:34;6.03;;;1.90;;
24901;SDS011;31328;51.402;0.016;2023-02-28T03:05:08;7.30;;;1.90;;
24901;SDS011;31328;51.402;0.016;2023-02-28T03:07:42;5.13;;;2.10;;
24901;SDS011;31328;51.402;0.016;2023-02-28T03:10:32;8.20;;;3.17;;
24901;SDS011;31328;51.402;0.016;2023-02-28T03:18:42;7.33;;;2.20;;
24901;SDS011;31328;51.402;0.016;2023-02-28T03:21:23;5.30;;;2.60;;
24901;SDS011;31328;51.402;0.016;2023-02-28T03:24:24;6.13;;;2.40;;
24901;SDS011;31328;51.402;0.016;2023-02-28T03:30:03;6.73;;;2.30;;
24901;SDS011;31328;51.402;0.016;2023-02-28T03:32:35;8.07;;;3.57;;
24901;SDS011;31328;51.402;0.016;2023-02-28T03:35:11;7.33;;;3.53;;
24901;SDS011;31328;51.402;0.016;2023-02-28T03:37:48;5.87;;;2.43;;
24901;SDS011;31328;51.402;0.016;2023-02-28T03:40:19;4.57;;;1.83;;
24901;SDS011;31328;51.402;0.016;2023-02-28T03:42:51;7.77;;;2.67;;
24901;SDS011;31328;51.402;0.016;2023-02-28T03:45:25;7.53;;;2.40;;
24901;SDS011;31328;51.402;0.016;2023-02-28T03:50:27;10.53;;;3.90;;
24901;SDS011;31328;51.402;0.016;2023-02-28T03:53:01;9.00;;;2.67;;
24901;SDS011;31328;51.402;0.016;2023-02-28T03:55:33;5.57;;;2.87;;
24901;SDS011;31328;51.402;0.016;2023-02-28T04:00:43;10.90;;;3.00;;
24901;SDS011;31328;51.402;0.016;2023-02-28T04:03:20;8.77;;;2.73;;
24901;SDS011;31328;51.402;0.016;2023-02-28T04:05:49;5.93;;;2.60;;
24901;SDS011;31328;51.402;0.016;2023-02-28T04:08:18;5.53;;;2.53;;
24901;SDS011;31328;51.402;0.016;2023-02-28T04:10:45;7.70;;;2.80;;
24901;SDS011;31328;51.402;0.016;2023-02-28T04:13:15;7.00;;;2.60;;
24901;SDS011;31328;51.402;0.016;2023-02-28T04:15:42;9.30;;;2.70;;
24901;SDS011;31328;51.402;0.016;2023-02-28T04:18:08;5.77;;;2.40;;
24901;SDS011;31328;51.402;0.016;2023-02-28T04:20:34;6.37;;;3.23;;
24901;SDS011;31328;51.402;0.016;2023-02-28T04:23:01;4.07;;;2.73;;
24901;SDS011;31328;51.402;0.016;2023-02-28T04:25:28;6.63;;;2.73;;
24901;SDS011;31328;51.402;0.016;2023-02-28T04:27:54;10.70;;;3.07;;
24901;SDS011;31328;51.402;0.016;2023-02-28T04:30:21;4.83;;;2.43;;
24901;SDS011;31328;51.402;0.016;2023-02-28T04:32:47;7.07;;;2.60;;
24901;SDS011;31328;51.402;0.016;2023-02-28T04:35:13;7.27;;;2.70;;
24901;SDS011;31328;51.402;0.016;2023-02-28T04:37:40;5.60;;;2.10;;
24901;SDS011;31328;51.402;0.016;2023-02-28T04:40:06;7.70;;;2.30;;
24901;SDS011;31328;51.402;0.016;2023-02-28T04:42:33;6.20;;;2.43;;
24901;SDS011;31328;51.402;0.016;2023-02-28T04:45:02;5.27;;;2.50;;
24901;SDS011;31328;51.402;0.016;2023-02-28T04:47:29;8.10;;;2.10;;
24901;SDS011;31328;51.402;0.016;2023-02-28T04:49:55;7.70;;;2.40;;
24901;SDS011;31328;51.402;0.016;2023-02-28T04:52:22;6.60;;;2.50;;
24901;SDS011;31328;51.402;0.016;2023-02-28T04:54:48;7.73;;;2.50;;
24901;SDS011;31328;51.402;0.016;2023-02-28T04:57:15;7.10;;;2.70;;
24901;SDS011;31328;51.402;0.016;2023-02-28T04:59:41;3.90;;;2.03;;
24901;SDS011;31328;51.402;0.016;2023-02-28T05:02:08;8.03;;;3.00;;
24901;SDS011;31328;51.402;0.016;2023-02-28T05:04:34;5.40;;;2.47;;
24901;SDS011;31328;51.402;0.016;2023-02-28T05:07:02;4.93;;;2.60;;
24901;SDS011;31328;51.402;0.016;2023-02-28T05:09:29;8.07;;;3.40;;
24901;SDS011;31328;51.402;0.016;2023-02-28T05:11:55;11.47;;;2.60;;
24901;SDS011;31328;51.402;0.016;2023-02-28T05:14:22;4.80;;;2.57;;
24901;SDS011;31328;51.402;0.016;2023-02-28T05:16:48;5.13;;;2.60;;
24901;SDS011;31328;51.402;0.016;2023-02-28T05:19:15;7.20;;;3.10;;
24901;SDS011;31328;51.402;0.016;2023-02-28T05:21:48;8.83;;;2.97;;
24901;SDS011;31328;51.402;0.016;2023-02-28T05:24:16;6.33;;;2.40;;
24901;SDS011;31328;51.402;0.016;2023-02-28T05:26:49;5.23;;;2.17;;
24901;SDS011;31328;51.402;0.016;2023-02-28T05:29:17;7.40;;;2.50;;
24901;SDS011;31328;51.402;0.016;2023-02-28T05:31:44;4.23;;;2.50;;
24901;SDS011;31328;51.402;0.016;2023-02-28T05:34:10;7.77;;;2.53;;
24901;SDS011;31328;51.402;0.016;2023-02-28T05:36:38;4.33;;;2.13;;
24901;SDS011;31328;51.402;0.016;2023-02-28T05:39:05;5.43;;;2.43;;
24901;SDS011;31328;51.402;0.016;2023-02-28T05:41:33;4.27;;;2.50;;
24901;SDS011;31328;51.402;0.016;2023-02-28T05:43:59;7.20;;;2.60;;
24901;SDS011;31328;51.402;0.016;2023-02-28T05:46:27;6.50;;;2.70;;
24901;SDS011;31328;51.402;0.016;2023-02-28T05:48:53;8.43;;;3.03;;
24901;SDS011;31328;51.402;0.016;2023-02-28T05:51:21;6.37;;;2.57;;
24901;SDS011;31328;51.402;0.016;2023-02-28T05:53:47;5.30;;;3.13;;
24901;SDS011;31328;51.402;0.016;2023-02-28T05:56:15;5.53;;;2.50;;
24901;SDS011;31328;51.402;0.016;2023-02-28T05:58:41;8.53;;;4.13;;
24901;SDS011;31328;51.402;0.016;2023-02-28T06:01:21;7.87;;;2.93;;
24901;SDS011;31328;51.402;0.016;2023-02-28T06:04:05;8.97;;;3.27;;
24901;SDS011;31328;51.402;0.016;2023-02-28T06:06:34;9.53;;;3.60;;
24901;SDS011;31328;51.402;0.016;2023-02-28T06:09:01;10.00;;;4.23;;
24901;SDS011;31328;51.402;0.016;2023-02-28T06:11:28;8.10;;;3.30;;
24901;SDS011;31328;51.402;0.016;2023-02-28T06:13:56;7.73;;;3.47;;
24901;SDS011;31328;51.402;0.016;2023-02-28T06:16:25;7.63;;;3.57;;
24901;SDS011;31328;51.402;0.016;2023-02-28T06:18:59;8.90;;;3.50;;
24901;SDS011;31328;51.402;0.016;2023-02-28T06:21:27;7.13;;;4.10;;
24901;SDS011;31328;51.402;0.016;2023-02-28T06:23:54;9.47;;;3.57;;
24901;SDS011;31328;51.402;0.016;2023-02-28T06:26:22;7.30;;;3.80;;
24901;SDS011;31328;51.402;0.016;2023-02-28T06:28:48;8.27;;;4.07;;
24901;SDS011;31328;51.402;0.016;2023-02-28T06:31:16;9.17;;;4.73;;
24901;SDS011;31328;51.402;0.016;2023-02-28T06:33:44;6.50;;;3.50;;
24901;SDS011;31328;51.402;0.016;2023-02-28T06:36:12;8.10;;;4.73;;
24901;SDS011;31328;51.402;0.016;2023-02-28T06:38:40;9.20;;;3.87;;
24901;SDS011;31328;51.402;0.016;2023-02-28T06:41:07;12.17;;;4.63;;
24901;SDS011;31328;51.402;0.016;2023-02-28T06:43:35;8.07;;;3.80;;
24901;SDS011;31328;51.402;0.016;2023-02-28T06:46:07;7.03;;;3.50;;
24901;SDS011;31328;51.402;0.016;2023-02-28T06:48:34;8.83;;;4.20;;
24901;SDS011;31328;51.402;0.016;2023-02-28T06:51:08;7.20;;;3.43;;
24901;SDS011;31328;51.402;0.016;2023-02-28T06:53:37;6.43;;;3.63;;
24901;SDS011;31328;51.402;0.016;2023-02-28T06:56:08;11.47;;;3.63;;
24901;SDS011;31328;51.402;0.016;2023-02-28T06:58:36;10.70;;;3.40;;
24901;SDS011;31328;51.402;0.016;2023-02-28T07:01:03;5.97;;;3.47;;
24901;SDS011;31328;51.402;0.016;2023-02-28T07:03:30;7.90;;;3.63;;
24901;SDS011;31328;51.402;0.016;2023-02-28T07:05:56;8.10;;;3.77;;
24901;SDS011;31328;51.402;0.016;2023-02-28T07:08:23;6.77;;;3.47;;
24901;SDS011;31328;51.402;0.016;2023-02-28T07:10:53;8.07;;;3.63;;
24901;SDS011;31328;51.402;0.016;2023-02-28T07:13:21;5.73;;;3.67;;
24901;SDS011;31328;51.402;0.016;2023-02-28T07:15:58;6.50;;;3.53;;
24901;SDS011;31328;51.402;0.016;2023-02-28T07:18:29;7.83;;;4.47;;
24901;SDS011;31328;51.402;0.016;2023-02-28T07:20:56;5.53;;;3.87;;
24901;SDS011;31328;51.402;0.016;2023-02-28T07:23:22;6.90;;;3.83;;
24901;SDS011;31328;51.402;0.016;2023-02-28T07:25:49;8.93;;;3.70;;
24901;SDS011;31328;51.402;0.016;2023-02-28T07:28:16;9.00;;;4.00;;
24901;SDS011;31328;51.402;0.016;2023-02-28T07:30:42;7.77;;;4.30;;
24901;SDS011;31328;51.402;0.016;2023-02-28T07:33:09;5.67;;;3.87;;
24901;SDS011;31328;51.402;0.016;2023-02-28T07:35:35;8.80;;;4.07;;
24901;SDS011;31328;51.402;0.016;2023-02-28T07:38:02;8.27;;;4.37;;
24901;SDS011;31328;51.402;0.016;2023-02-28T07:40:30;11.43;;;4.40;;
24901;SDS011;31328;51.402;0.016;2023-02-28T07:42:58;6.80;;;4.30;;
24901;SDS011;31328;51.402;0.016;2023-02-28T07:45:25;8.60;;;4.63;;
24901;SDS011;31328;51.402;0.016;2023-02-28T07:47:52;8.30;;;5.30;;
24901;SDS011;31328;51.402;0.016;2023-02-28T07:50:18;8.27;;;5.23;;
24901;SDS011;31328;51.402;0.016;2023-02-28T07:52:45;10.97;;;4.47;;
24901;SDS011;31328;51.402;0.016;2023-02-28T07:55:11;9.40;;;4.47;;
24901;SDS011;31328;51.402;0.016;2023-02-28T07:57:39;9.53;;;4.43;;
24901;SDS011;31328;51.402;0.016;2023-02-28T08:00:07;7.83;;;5.07;;
24901;SDS011;31328;51.402;0.016;2023-02-28T08:02:38;6.63;;;4.10;;
24901;SDS011;31328;51.402;0.016;2023-02-28T08:05:05;6.90;;;3.87;;
24901;SDS011;31328;51.402;0.016;2023-02-28T08:07:31;6.03;;;4.30;;
24901;SDS011;31328;51.402;0.016;2023-02-28T08:09:59;8.70;;;4.67;;
24901;SDS011;31328;51.402;0.016;2023-02-28T08:12:25;8.30;;;4.00;;
24901;SDS011;31328;51.402;0.016;2023-02-28T08:14:51;6.37;;;3.90;;
24901;SDS011;31328;51.402;0.016;2023-02-28T08:17:18;6.77;;;4.20;;
24901;SDS011;31328;51.402;0.016;2023-02-28T08:19:47;5.50;;;3.27;;
24901;SDS011;31328;51.402;0.016;2023-02-28T08:22:14;6.07;;;3.60;;
24901;SDS011;31328;51.402;0.016;2023-02-28T08:24:41;7.10;;;4.00;;
24901;SDS011;31328;51.402;0.016;2023-02-28T08:27:08;6.53;;;3.67;;
24901;SDS011;31328;51.402;0.016;2023-02-28T08:29:36;8.37;;;3.73;;
24901;SDS011;31328;51.402;0.016;2023-02-28T08:32:04;4.83;;;3.00;;
24901;SDS011;31328;51.402;0.016;2023-02-28T08:34:31;5.33;;;3.17;;
24901;SDS011;31328;51.402;0.016;2023-02-28T08:36:57;7.23;;;3.40;;
24901;SDS011;31328;51.402;0.016;2023-02-28T08:39:23;6.37;;;3.23;;
24901;SDS011;31328;51.402;0.016;2023-02-28T08:41:50;6.30;;;3.33;;
24901;SDS011;31328;51.402;0.016;2023-02-28T08:44:16;6.13;;;2.90;;
24901;SDS011;31328;51.402;0.016;2023-02-28T08:46:42;6.63;;;3.20;;
24901;SDS011;31328;51.402;0.016;2023-02-28T08:49:09;7.03;;;3.43;;
24901;SDS011;31328;51.402;0.016;2023-02-28T08:51:36;6.00;;;2.73;;
24901;SDS011;31328;51.402;0.016;2023-02-28T08:54:10;5.77;;;3.60;;
24901;SDS011;31328;51.402;0.016;2023-02-28T08:56:38;5.57;;;3.10;;
24901;SDS011;31328;51.402;0.016;2023-02-28T08:59:05;6.67;;;3.40;;
24901;SDS011;31328;51.402;0.016;2023-02-28T09:01:31;5.33;;;3.50;;
24901;SDS011;31328;51.402;0.016;2023-02-28T09:03:57;4.00;;;2.90;;
24901;SDS011;31328;51.402;0.016;2023-02-28T09:06:25;4.30;;;3.10;;
24901;SDS011;31328;51.402;0.016;2023-02-28T09:08:52;4.43;;;3.20;;
24901;SDS011;31328;51.402;0.016;2023-02-28T09:11:18;4.40;;;2.80;;
24901;SDS011;31328;51.402;0.016;2023-02-28T09:13:45;7.10;;;3.37;;
24901;SDS011;31328;51.402;0.016;2023-02-28T09:16:13;4.20;;;2.50;;
24901;SDS011;31328;51.402;0.016;2023-02-28T09:18:40;4.40;;;2.40;;
24901;SDS011;31328;51.402;0.016;2023-02-28T09:21:08;6.23;;;2.50;;
24901;SDS011;31328;51.402;0.016;2023-02-28T09:23:39;3.87;;;2.50;;
24901;SDS011;31328;51.402;0.016;2023-02-28T09:26:07;3.67;;;2.30;;
24901;SDS011;31328;51.402;0.016;2023-02-28T09:28:38;5.07;;;2.20;;
24901;SDS011;31328;51.402;0.016;2023-02-28T09:31:04;3.07;;;1.83;;
24901;SDS011;31328;51.402;0.016;2023-02-28T09:33:31;4.17;;;2.37;;
24901;SDS011;31328;51.402;0.016;2023-02-28T09:35:58;4.47;;;1.67;;
24901;SDS011;31328;51.402;0.016;2023-02-28T09:38:26;3.30;;;2.03;;
24901;SDS011;31328;51.402;0.016;2023-02-28T09:40:54;4.03;;;2.10;;
24901;SDS011;31328;51.402;0.016;2023-02-28T09:43:28;3.47;;;2.13;;
24901;SDS011;31328;51.402;0.016;2023-02-28T09:48:51;5.30;;;2.30;;
24901;SDS011;31328;51.402;0.016;2023-02-28T09:54:09;8.17;;;2.10;;
24901;SDS011;31328;51.402;0.016;2023-02-28T09:56:45;3.27;;;2.00;;
24901;SDS011;31328;51.402;0.016;2023-02-28T09:59:21;4.07;;;2.20;;
24901;SDS011;31328;51.402;0.016;2023-02-28T10:01:55;3.20;;;2.20;;
24901;SDS011;31328;51.402;0.016;2023-02-28T10:09:57;5.70;;;2.40;;
24901;SDS011;31328;51.402;0.016;2023-02-28T10:12:28;4.83;;;2.43;;
24901;SDS011;31328;51.402;0.016;2023-02-28T10:14:57;2.83;;;0.90;;
24901;SDS011;31328;51.402;0.016;2023-02-28T10:17:31;3.13;;;1.00;;
24901;SDS011;31328;51.402;0.016;2023-02-28T10:20:07;1.37;;;0.90;;
24901;SDS011;31328;51.402;0.016;2023-02-28T10:25:33;1.13;;;0.80;;
24901;SDS011;31328;51.402;0.016;2023-02-28T10:28:07;1.80;;;1.10;;
24901;SDS011;31328;51.402;0.016;2023-02-28T10:30:40;1.43;;;0.87;;
24901;SDS011;31328;51.402;0.016;2023-02-28T10:33:19;1.37;;;1.03;;
24901;SDS011;31328;51.402;0.016;2023-02-28T10:35:54;2.63;;;0.93;;
24901;SDS011;31328;51.402;0.016;2023-02-28T10:38:23;2.60;;;1.03;;
24901;SDS011;31328;51.402;0.016;2023-02-28T10:40:51;2.50;;;1.00;;
24901;SDS011;31328;51.402;0.016;2023-02-28T10:43:33;2.10;;;0.83;;
24901;SDS011;31328;51.402;0.016;2023-02-28T10:48:48;3.00;;;1.30;;
24901;SDS011;31328;51.402;0.016;2023-02-28T10:51:26;2.57;;;1.10;;
24901;SDS011;31328;51.402;0.016;2023-02-28T10:54:01;1.97;;;1.00;;
24901;SDS011;31328;51.402;0.016;2023-02-28T10:56:29;3.53;;;1.90;;
24901;SDS011;31328;51.402;0.016;2023-02-28T10:58:57;2.73;;;0.90;;
24901;SDS011;31328;51.402;0.016;2023-02-28T11:04:39;2.40;;;1.30;;
24901;SDS011;31328;51.402;0.016;2023-02-28T11:09:51;1.53;;;0.80;;
24901;SDS011;31328;51.402;0.016;2023-02-28T11:14:49;1.57;;;0.70;;
24901;SDS011;31328;51.402;0.016;2023-02-28T11:17:22;1.87;;;0.93;;
24901;SDS011;31328;51.402;0.016;2023-02-28T11:22:31;4.97;;;1.23;;
24901;SDS011;31328;51.402;0.016;2023-02-28T11:25:02;2.83;;;1.23;;
24901;SDS011;31328;51.402;0.016;2023-02-28T11:27:41;2.07;;;1.10;;
24901;SDS011;31328;51.402;0.016;2023-02-28T11:30:32;1.90;;;1.10;;
24901;SDS011;31328;51.402;0.016;2023-02-28T11:33:40;3.33;;;1.13;;
24901;SDS011;31328;51.402;0.016;2023-02-28T11:36:29;2.40;;;1.17;;
24901;SDS011;31328;51.402;0.016;2023-02-28T11:38:58;3.27;;;1.30;;
24901;SDS011;31328;51.402;0.016;2023-02-28T11:46:52;3.47;;;1.30;;
24901;SDS011;31328;51.402;0.016;2023-02-28T12:02:55;1.52;;;1.40;;
24901;SDS011;31328;51.402;0.016;2023-02-28T12:05:54;2.00;;;1.40;;
24901;SDS011;31328;51.402;0.016;2023-02-28T12:13:54;2.73;;;1.50;;
24901;SDS011;31328;51.402;0.016;2023-02-28T12:19:19;2.50;;;1.50;;
24901;SDS011;31328;51.402;0.016;2023-02-28T12:27:33;3.17;;;1.80;;
24901;SDS011;31328;51.402;0.016;2023-02-28T12:30:19;2.58;;;1.80;;
24901;SDS011;31328;51.402;0.016;2023-02-28T12:33:04;3.37;;;1.97;;
24901;SDS011;31328;51.402;0.016;2023-02-28T12:35:37;3.13;;;2.17;;
24901;SDS011;31328;51.402;0.016;2023-02-28T12:38:14;3.97;;;2.20;;
24901;SDS011;31328;51.402;0.016;2023-02-28T12:41:16;4.13;;;2.20;;
24901;SDS011;31328;51.402;0.016;2023-02-28T12:44:04;4.57;;;2.73;;
24901;SDS011;31328;51.402;0.016;2023-02-28T12:49:20;3.00;;;2.20;;
24901;SDS011;31328;51.402;0.016;2023-02-28T12:51:51;2.83;;;1.90;;
24901;SDS011;31328;51.402;0.016;2023-02-28T12:54:26;3.17;;;1.70;;
24901;SDS011;31328;51.402;0.016;2023-02-28T12:57:14;3.45;;;1.60;;
24901;SDS011;31328;51.402;0.016;2023-02-28T13:00:13;4.27;;;1.80;;
24901;SDS011;31328;51.402;0.016;2023-02-28T13:08:22;4.30;;;1.93;;
24901;SDS011;31328;51.402;0.016;2023-02-28T13:11:23;2.70;;;1.40;;
24901;SDS011;31328;51.402;0.016;2023-02-28T13:14:04;3.20;;;1.60;;
24901;SDS011;31328;51.402;0.016;2023-02-28T13:27:52;5.75;;;1.65;;
24901;SDS011;31328;51.402;0.016;2023-02-28T13:35:45;3.13;;;1.80;;
24901;SDS011;31328;51.402;0.016;2023-02-28T13:38:16;3.20;;;1.80;;
24901;SDS011;31328;51.402;0.016;2023-02-28T13:40:47;2.97;;;1.80;;
24901;SDS011;31328;51.402;0.016;2023-02-28T13:43:13;4.30;;;1.70;;
24901;SDS011;31328;51.402;0.016;2023-02-28T13:46:03;1.97;;;1.10;;
24901;SDS011;31328;51.402;0.016;2023-02-28T13:48:32;2.50;;;1.40;;
24901;SDS011;31328;51.402;0.016;2023-02-28T13:50:58;2.67;;;1.20;;
24901;SDS011;31328;51.402;0.016;2023-02-28T13:53:34;2.57;;;1.30;;
24901;SDS011;31328;51.402;0.016;2023-02-28T13:56:23;1.90;;;0.90;;
24901;SDS011;31328;51.402;0.016;2023-02-28T14:07:09;2.03;;;1.03;;
24901;SDS011;31328;51.402;0.016;2023-02-28T14:09:55;2.13;;;1.23;;
24901;SDS011;31328;51.402;0.016;2023-02-28T14:15:25;2.50;;;1.10;;
24901;SDS011;31328;51.402;0.016;2023-02-28T14:18:18;3.07;;;1.20;;
24901;SDS011;31328;51.402;0.016;2023-02-28T14:20:48;2.63;;;1.40;;
24901;SDS011;31328;51.402;0.016;2023-02-28T14:29:22;1.20;;;1.00;;
24901;SDS011;31328;51.402;0.016;2023-02-28T14:37:49;2.47;;;0.90;;
24901;SDS011;31328;51.402;0.016;2023-02-28T14:40:17;2.37;;;1.40;;
24901;SDS011;31328;51.402;0.016;2023-02-28T14:42:49;1.33;;;1.20;;
24901;SDS011;31328;51.402;0.016;2023-02-28T14:45:25;3.07;;;1.60;;
24901;SDS011;31328;51.402;0.016;2023-02-28T14:47:58;1.97;;;1.70;;
24901;SDS011;31328;51.402;0.016;2023-02-28T14:50:30;2.23;;;1.10;;
24901;SDS011;31328;51.402;0.016;2023-02-28T14:53:01;3.47;;;2.03;;
24901;SDS011;31328;51.402;0.016;2023-02-28T14:55:32;2.20;;;1.40;;
24901;SDS011;31328;51.402;0.016;2023-02-28T14:58:01;2.97;;;1.30;;
24901;SDS011;31328;51.402;0.016;2023-02-28T15:00:49;3.90;;;1.27;;
24901;SDS011;31328;51.402;0.016;2023-02-28T15:03:18;2.03;;;0.90;;
24901;SDS011;31328;51.402;0.016;2023-02-28T15:05:52;3.15;;;1.05;;
24901;SDS011;31328;51.402;0.016;2023-02-28T15:08:30;1.90;;;1.00;;
24901;SDS011;31328;51.402;0.016;2023-02-28T15:11:05;2.93;;;1.83;;
24901;SDS011;31328;51.402;0.016;2023-02-28T15:13:48;2.07;;;1.00;;
24901;SDS011;31328;51.402;0.016;2023-02-28T15:16:26;3.10;;;1.00;;
24901;SDS011;31328;51.402;0.016;2023-02-28T15:19:26;1.80;;;0.90;;
24901;SDS011;31328;51.402;0.016;2023-02-28T15:21:55;1.97;;;0.80;;
24901;SDS011;31328;51.402;0.016;2023-02-28T15:24:36;1.23;;;0.80;;
24901;SDS011;31328;51.402;0.016;2023-02-28T15:27:12;2.23;;;1.33;;
24901;SDS011;31328;51.402;0.016;2023-02-28T15:29:44;3.27;;;1.00;;
24901;SDS011;31328;51.402;0.016;2023-02-28T15:32:27;0.93;;;0.60;;
24901;SDS011;31328;51.402;0.016;2023-02-28T15:34:56;2.50;;;0.70;;
24901;SDS011;31328;51.402;0.016;2023-02-28T15:37:40;0.90;;;0.53;;
24901;SDS011;31328;51.402;0.016;2023-02-28T15:40:17;1.90;;;0.73;;
24901;SDS011;31328;51.402;0.016;2023-02-28T15:43:12;2.47;;;1.00;;
24901;SDS011;31328;51.402;0.016;2023-02-28T15:48:44;3.53;;;0.80;;
24901;SDS011;31328;51.402;0.016;2023-02-28T15:51:29;0.87;;;0.73;;
24901;SDS011;31328;51.402;0.016;2023-02-28T15:54:04;1.00;;;0.60;;
24901;SDS011;31328;51.402;0.016;2023-02-28T15:56:35;3.40;;;1.77;;
24901;SDS011;31328;51.402;0.016;2023-02-28T15:59:16;1.57;;;1.10;;
24901;SDS011;31328;51.402;0.016;2023-02-28T16:01:45;2.63;;;0.73;;
24901;SDS011;31328;51.402;0.016;2023-02-28T16:04:28;2.07;;;0.80;;
24901;SDS011;31328;51.402;0.016;2023-02-28T16:09:23;2.57;;;1.00;;
24901;SDS011;31328;51.402;0.016;2023-02-28T16:11:50;1.00;;;0.80;;
24901;SDS011;31328;51.402;0.016;2023-02-28T16:14:19;1.97;;;0.87;;
24901;SDS011;31328;51.402;0.016;2023-02-28T16:16:51;1.37;;;1.00;;
24901;SDS011;31328;51.402;0.016;2023-02-28T16:19:22;3.07;;;1.97;;
24901;SDS011;31328;51.402;0.016;2023-02-28T16:21:49;1.27;;;1.10;;
24901;SDS011;31328;51.402;0.016;2023-02-28T16:24:15;1.97;;;1.27;;
24901;SDS011;31328;51.402;0.016;2023-02-28T16:26:42;1.73;;;1.00;;
24901;SDS011;31328;51.402;0.016;2023-02-28T16:29:15;2.07;;;1.30;;
24901;SDS011;31328;51.402;0.016;2023-02-28T16:32:00;2.90;;;1.40;;
24901;SDS011;31328;51.402;0.016;2023-02-28T16:34:29;2.00;;;0.90;;
24901;SDS011;31328;51.402;0.016;2023-02-28T16:36:55;2.47;;;1.13;;
24901;SDS011;31328;51.402;0.016;2023-02-28T16:39:22;2.43;;;1.37;;
24901;SDS011;31328;51.402;0.016;2023-02-28T16:41:48;3.27;;;1.50;;
24901;SDS011;31328;51.402;0.016;2023-02-28T16:44:33;1.50;;;1.10;;
24901;SDS011;31328;51.402;0.016;2023-02-28T16:47:01;4.07;;;1.25;;
24901;SDS011;31328;51.402;0.016;2023-02-28T16:49:29;1.40;;;0.90;;
24901;SDS011;31328;51.402;0.016;2023-02-28T16:51:55;2.43;;;1.30;;
24901;SDS011;31328;51.402;0.016;2023-02-28T16:54:22;1.07;;;0.87;;
24901;SDS011;31328;51.402;0.016;2023-02-28T16:56:48;1.13;;;0.83;;
24901;SDS011;31328;51.402;0.016;2023-02-28T16:59:17;2.20;;;1.20;;
24901;SDS011;31328;51.402;0.016;2023-02-28T17:01:47;1.30;;;1.20;;
24901;SDS011;31328;51.402;0.016;2023-02-28T17:04:15;2.00;;;1.40;;
24901;SDS011;31328;51.402;0.016;2023-02-28T17:06:41;2.80;;;1.60;;
24901;SDS011;31328;51.402;0.016;2023-02-28T17:09:09;4.67;;;1.30;;
24901;SDS011;31328;51.402;0.016;2023-02-28T17:14:08;2.77;;;1.10;;
24901;SDS011;31328;51.402;0.016;2023-02-28T17:16:35;1.30;;;0.90;;
24901;SDS011;31328;51.402;0.016;2023-02-28T17:19:06;1.30;;;0.90;;
24901;SDS011;31328;51.402;0.016;2023-02-28T17:21:36;1.90;;;1.10;;
24901;SDS011;31328;51.402;0.016;2023-02-28T17:24:04;1.47;;;1.20;;
24901;SDS011;31328;51.402;0.016;2023-02-28T17:26:30;1.23;;;1.13;;
24901;SDS011;31328;51.402;0.016;2023-02-28T17:28:57;1.03;;;0.87;;
24901;SDS011;31328;51.402;0.016;2023-02-28T17:31:24;2.03;;;1.10;;
24901;SDS011;31328;51.402;0.016;2023-02-28T17:33:51;1.33;;;1.10;;
24901;SDS011;31328;51.402;0.016;2023-02-28T17:36:23;1.50;;;1.00;;
24901;SDS011;31328;51.402;0.016;2023-02-28T17:38:51;1.40;;;0.97;;
24901;SDS011;31328;51.402;0.016;2023-02-28T17:41:18;1.30;;;0.90;;
24901;SDS011;31328;51.402;0.016;2023-02-28T17:43:45;3.23;;;0.83;;
24901;SDS011;31328;51.402;0.016;2023-02-28T17:46:14;1.33;;;0.80;;
24901;SDS011;31328;51.402;0.016;2023-02-28T17:48:44;2.30;;;0.90;;